createdAt,value
2019-05-23T00:02:41.532Z,10.70
2019-05-23T00:05:13.628Z,10.60
2019-05-23T00:07:43.833Z,10.60
2019-05-23T00:10:15.548Z,10.60
2019-05-23T00:12:45.874Z,10.60
2019-05-23T00:15:22.968Z,10.60
2019-05-23T00:17:53.053Z,10.60
2019-05-23T00:20:25.472Z,10.70
2019-05-23T00:22:55.485Z,10.70
2019-05-23T00:25:25.656Z,10.70
2019-05-23T00:27:56.228Z,10.70
2019-05-23T00:30:34.076Z,10.90
2019-05-23T00:33:11.387Z,10.90
2019-05-23T00:35:42.275Z,10.90
2019-05-23T00:38:13.362Z,10.80
2019-05-23T00:40:43.509Z,10.90
2019-05-23T00:43:13.108Z,10.80
2019-05-23T00:45:43.491Z,10.80
2019-05-23T00:48:13.454Z,10.70
2019-05-23T00:50:44.504Z,10.60
2019-05-23T00:53:14.763Z,10.50
2019-05-23T00:55:44.811Z,10.40
2019-05-23T00:58:15.001Z,10.30
2019-05-23T01:00:44.944Z,10.20
2019-05-23T01:03:16.639Z,10.20
2019-05-23T01:05:46.587Z,10.10
2019-05-23T01:08:18.742Z,10.10
2019-05-23T01:10:49.840Z,10.10
2019-05-23T01:13:20.340Z,10.00
2019-05-23T01:15:50.734Z,10.00
2019-05-23T01:18:20.973Z,10.00
2019-05-23T01:20:52.154Z,9.90
2019-05-23T01:23:23.649Z,9.80
2019-05-23T01:25:53.907Z,9.80
2019-05-23T01:28:23.830Z,9.70
2019-05-23T01:31:07.489Z,9.70
2019-05-23T01:33:39.754Z,9.60
2019-05-23T01:36:10.516Z,9.60
2019-05-23T01:38:41.090Z,9.50
2019-05-23T01:41:12.877Z,9.50
2019-05-23T01:43:42.426Z,9.50
2019-05-23T01:46:13.205Z,9.50
2019-05-23T01:48:42.799Z,9.40
2019-05-23T01:51:14.058Z,9.40
2019-05-23T01:53:43.926Z,9.30
2019-05-23T01:56:13.860Z,9.30
2019-05-23T01:58:44.270Z,9.30
2019-05-23T02:01:15.541Z,9.20
2019-05-23T02:03:46.035Z,9.20
2019-05-23T02:06:15.788Z,9.10
2019-05-23T02:08:45.349Z,9.10
2019-05-23T02:11:16.364Z,9.10
2019-05-23T02:13:46.728Z,9.10
2019-05-23T02:16:16.347Z,9.10
2019-05-23T02:18:46.552Z,9.00
2019-05-23T02:21:17.625Z,9.00
2019-05-23T02:23:47.262Z,9.00
2019-05-23T02:26:17.091Z,9.00
2019-05-23T02:28:47.815Z,9.00
2019-05-23T02:31:17.749Z,9.00
2019-05-23T02:33:47.890Z,9.00
2019-05-23T02:36:17.555Z,8.90
2019-05-23T02:38:52.424Z,8.90
2019-05-23T02:41:41.925Z,8.90
2019-05-23T02:44:13.121Z,8.90
2019-05-23T02:46:50.005Z,8.90
2019-05-23T02:49:25.402Z,8.90
2019-05-23T02:51:56.734Z,8.80
2019-05-23T02:54:29.311Z,8.80
2019-05-23T02:57:00.389Z,8.80
2019-05-23T02:59:49.031Z,8.80
2019-05-23T03:02:35.128Z,8.80
2019-05-23T03:05:10.962Z,8.80
2019-05-23T03:07:41.979Z,8.70
2019-05-23T03:10:13.227Z,8.70
2019-05-23T03:12:43.768Z,8.70
2019-05-23T03:15:14.606Z,8.70
2019-05-23T03:17:47.413Z,8.70
2019-05-23T03:20:17.045Z,8.80
2019-05-23T03:22:54.160Z,8.80
2019-05-23T03:25:39.645Z,8.80
2019-05-23T03:28:12.503Z,8.90
2019-05-23T03:30:44.069Z,8.90
2019-05-23T03:33:15.120Z,8.90
2019-05-23T03:35:46.684Z,8.90
2019-05-23T03:38:16.948Z,9.00
2019-05-23T03:40:47.336Z,9.00
2019-05-23T03:43:17.491Z,9.10
2019-05-23T03:46:07.121Z,9.20
2019-05-23T03:48:38.599Z,9.30
2019-05-23T03:51:09.998Z,9.40
2019-05-23T03:53:41.303Z,9.50
2019-05-23T03:56:11.178Z,9.60
2019-05-23T03:58:42.201Z,9.80
2019-05-23T04:01:13.373Z,10.00
2019-05-23T04:03:45.008Z,10.20
2019-05-23T04:06:15.347Z,10.40
2019-05-23T04:08:45.216Z,10.60
2019-05-23T04:11:14.924Z,10.90
2019-05-23T04:13:44.642Z,11.10
2019-05-23T04:16:14.287Z,11.40
2019-05-23T04:18:44.009Z,11.60
2019-05-23T04:21:14.122Z,11.70
2019-05-23T04:23:43.656Z,11.90
2019-05-23T04:26:13.208Z,12.10
2019-05-23T04:28:43.352Z,12.20
2019-05-23T04:31:13.881Z,12.40
2019-05-23T04:33:43.414Z,12.50
2019-05-23T04:36:13.225Z,12.60
2019-05-23T04:38:42.974Z,12.70
2019-05-23T04:41:13.156Z,13.10
2019-05-23T04:43:42.975Z,13.50
2019-05-23T04:46:13.278Z,14.10
2019-05-23T04:48:43.211Z,15.00
2019-05-23T04:51:12.677Z,16.10
2019-05-23T04:53:42.148Z,17.30
2019-05-23T04:56:12.500Z,18.60
2019-05-23T04:58:42.670Z,19.90
2019-05-23T05:01:12.832Z,21.40
2019-05-23T05:03:44.688Z,22.50
2019-05-23T05:06:14.740Z,23.20
2019-05-23T05:08:44.509Z,23.70
2019-05-23T05:11:14.110Z,24.10
2019-05-23T05:13:44.048Z,24.70
2019-05-23T05:16:14.210Z,25.50
2019-05-23T05:18:44.205Z,26.20
2019-05-23T05:21:13.679Z,26.70
2019-05-23T05:23:43.145Z,27.10
2019-05-23T05:26:15.726Z,27.30
2019-05-23T05:28:45.438Z,27.50
2019-05-23T05:31:15.071Z,27.80
2019-05-23T05:33:44.559Z,28.40
2019-05-23T05:36:14.097Z,28.90
2019-05-23T05:38:44.197Z,29.20
2019-05-23T05:41:14.636Z,29.70
2019-05-23T05:43:44.405Z,30.50
2019-05-23T05:46:14.200Z,30.80
2019-05-23T05:48:43.852Z,30.90
2019-05-23T05:51:13.732Z,31.50
2019-05-23T05:53:43.413Z,31.50
2019-05-23T05:56:12.955Z,31.70
2019-05-23T05:58:43.129Z,32.40
2019-05-23T06:01:14.087Z,32.70
2019-05-23T06:03:44.030Z,32.80
2019-05-23T06:06:20.804Z,32.80
2019-05-23T06:08:52.124Z,32.70
2019-05-23T06:11:22.059Z,32.80
2019-05-23T06:13:51.989Z,32.90
2019-05-23T06:16:21.769Z,33.10
2019-05-23T06:18:51.416Z,33.20
2019-05-23T06:21:22.868Z,33.30
2019-05-23T06:23:53.122Z,33.30
2019-05-23T06:26:22.870Z,33.50
2019-05-23T06:28:52.435Z,34.40
2019-05-23T06:31:22.332Z,35.70
2019-05-23T06:33:52.639Z,37.30
2019-05-23T06:36:22.359Z,38.30
2019-05-23T06:38:53.217Z,38.90
2019-05-23T06:41:24.130Z,39.00
2019-05-23T06:43:54.141Z,39.20
2019-05-23T06:46:24.250Z,39.20
2019-05-23T06:48:53.859Z,39.10
2019-05-23T06:51:23.789Z,39.00
2019-05-23T06:53:53.817Z,39.00
2019-05-23T06:56:23.459Z,39.10
2019-05-23T06:58:53.104Z,39.60
2019-05-23T07:01:23.073Z,40.30
2019-05-23T07:03:53.161Z,40.50
2019-05-23T07:06:24.532Z,40.30
2019-05-23T07:08:54.688Z,40.20
2019-05-23T07:11:25.324Z,40.20
2019-05-23T07:13:55.020Z,40.30
2019-05-23T07:16:24.551Z,39.90
2019-05-23T07:18:54.156Z,39.80
2019-05-23T07:21:23.967Z,39.70
2019-05-23T07:23:53.784Z,39.90
2019-05-23T07:26:24.016Z,39.80
2019-05-23T07:28:54.148Z,40.10
2019-05-23T07:31:24.054Z,40.80
2019-05-23T07:34:01.905Z,41.00
2019-05-23T07:36:25.280Z,41.40
2019-05-23T07:38:55.102Z,41.60
2019-05-23T07:41:26.116Z,41.60
2019-05-23T07:43:55.792Z,41.60
2019-05-23T07:46:25.652Z,41.90
2019-05-23T07:48:55.649Z,42.60
2019-05-23T07:51:25.676Z,43.50
2019-05-23T07:53:56.853Z,43.90
2019-05-23T07:56:28.390Z,44.00
2019-05-23T07:58:58.470Z,44.30
2019-05-23T08:01:29.768Z,44.60
2019-05-23T08:04:00.053Z,43.80
2019-05-23T08:06:29.581Z,43.50
2019-05-23T08:08:59.656Z,43.40
2019-05-23T08:11:29.189Z,43.40
2019-05-23T08:13:58.808Z,43.10
2019-05-23T08:16:28.527Z,42.70
2019-05-23T08:18:58.614Z,42.40
2019-05-23T08:21:28.711Z,41.60
2019-05-23T08:23:58.352Z,42.00
2019-05-23T08:26:29.625Z,42.20
2019-05-23T08:29:24.061Z,41.50
2019-05-23T08:31:31.130Z,40.40
2019-05-23T08:34:01.753Z,37.70
2019-05-23T08:36:32.292Z,34.80
2019-05-23T08:39:03.667Z,32.20
2019-05-23T08:41:34.845Z,30.20
2019-05-23T08:44:05.984Z,28.60
2019-05-23T08:46:36.084Z,27.30
2019-05-23T08:49:06.169Z,26.20
2019-05-23T08:51:35.839Z,25.10
2019-05-23T08:54:06.727Z,24.20
2019-05-23T08:56:37.347Z,23.40
2019-05-23T08:59:07.493Z,23.00
2019-05-23T09:01:37.622Z,22.60
2019-05-23T09:04:09.199Z,22.20
2019-05-23T09:06:39.118Z,21.60
2019-05-23T09:09:28.449Z,21.30
2019-05-23T09:11:42.143Z,21.00
2019-05-23T09:14:11.746Z,20.90
2019-05-23T09:16:42.204Z,20.90
2019-05-23T09:19:11.928Z,20.90
2019-05-23T09:21:42.365Z,20.80
2019-05-23T09:24:12.863Z,20.80
2019-05-23T09:26:42.620Z,20.80
2019-05-23T09:29:12.350Z,20.60
2019-05-23T09:31:41.943Z,20.60
2019-05-23T09:34:12.013Z,20.50
2019-05-23T09:36:42.234Z,20.30
2019-05-23T09:39:13.585Z,20.20
2019-05-23T09:41:43.041Z,20.30
2019-05-23T09:44:13.080Z,20.50
2019-05-23T09:46:42.866Z,20.50
2019-05-23T09:49:12.336Z,20.60
2019-05-23T09:51:41.787Z,20.60
2019-05-23T09:54:11.461Z,20.50
2019-05-23T09:56:42.303Z,20.40
2019-05-23T09:59:11.877Z,20.30
2019-05-23T10:01:41.520Z,20.20
2019-05-23T10:04:11.428Z,20.20
2019-05-23T10:06:41.024Z,20.20
2019-05-23T10:09:10.552Z,20.20
2019-05-23T10:11:40.558Z,20.30
2019-05-23T10:14:11.909Z,20.40
2019-05-23T10:16:42.343Z,20.40
2019-05-23T10:19:11.978Z,20.50
2019-05-23T10:21:41.508Z,20.50
2019-05-23T10:24:11.203Z,20.50
2019-05-23T10:26:40.715Z,20.50
2019-05-23T10:29:10.280Z,20.30
2019-05-23T10:31:39.983Z,20.20
2019-05-23T10:34:09.499Z,20.10
2019-05-23T10:36:39.669Z,20.00
2019-05-23T10:39:11.952Z,20.00
2019-05-23T10:41:42.060Z,20.10
2019-05-23T10:44:12.087Z,20.10
2019-05-23T10:46:41.700Z,20.10
2019-05-23T10:49:11.707Z,20.10
2019-05-23T10:51:41.703Z,20.20
2019-05-23T10:54:11.463Z,20.20
2019-05-23T10:56:41.068Z,20.40
2019-05-23T10:59:10.589Z,20.50
2019-05-23T11:01:40.138Z,20.70
2019-05-23T11:04:10.303Z,20.70
2019-05-23T11:06:40.569Z,20.60
2019-05-23T11:09:11.548Z,20.70
2019-05-23T11:11:41.615Z,20.70
2019-05-23T11:14:11.581Z,20.70
2019-05-23T11:16:41.876Z,20.80
2019-05-23T11:19:12.297Z,20.80
2019-05-23T11:21:41.855Z,20.80
2019-05-23T11:24:12.481Z,20.70
2019-05-23T11:26:42.126Z,20.70
2019-05-23T11:29:11.719Z,20.60
2019-05-23T11:31:42.191Z,20.60
2019-05-23T11:34:11.842Z,20.50
2019-05-23T11:36:41.581Z,20.60
2019-05-23T11:39:12.584Z,20.70
2019-05-23T11:41:42.209Z,20.70
2019-05-23T11:44:11.760Z,20.70
2019-05-23T11:46:41.620Z,20.70
2019-05-23T11:49:11.193Z,20.80
2019-05-23T11:51:40.700Z,20.80
2019-05-23T11:54:10.626Z,20.60
2019-05-23T11:56:41.568Z,20.70
2019-05-23T11:59:11.794Z,20.80
2019-05-23T12:01:43.420Z,20.70
2019-05-23T12:04:14.662Z,20.80
2019-05-23T12:06:55.245Z,20.90
2019-05-23T12:09:20.860Z,20.90
2019-05-23T12:11:50.423Z,21.00
2019-05-23T12:14:20.313Z,21.00
2019-05-23T12:16:49.947Z,21.20
2019-05-23T12:19:20.136Z,21.30
2019-05-23T12:21:49.673Z,21.20
2019-05-23T12:24:19.418Z,21.20
2019-05-23T12:26:49.172Z,21.20
2019-05-23T12:29:19.097Z,21.10
2019-05-23T12:31:49.788Z,21.10
2019-05-23T12:34:19.756Z,21.20
2019-05-23T12:36:49.455Z,21.20
2019-05-23T12:39:19.379Z,21.10
2019-05-23T12:41:49.100Z,21.00
2019-05-23T12:44:18.826Z,21.00
2019-05-23T12:46:48.474Z,21.10
2019-05-23T12:49:22.473Z,21.10
2019-05-23T12:51:53.623Z,21.10
2019-05-23T12:54:23.900Z,21.00
2019-05-23T12:56:54.035Z,21.10
2019-05-23T12:59:24.108Z,21.20
2019-05-23T13:01:55.260Z,21.10
2019-05-23T13:04:24.896Z,21.10
2019-05-23T13:06:54.638Z,21.20
2019-05-23T13:09:24.726Z,21.20
2019-05-23T13:11:54.348Z,21.20
2019-05-23T13:14:24.113Z,21.20
2019-05-23T13:16:53.584Z,21.20
2019-05-23T13:19:23.635Z,21.30
2019-05-23T13:21:53.435Z,21.30
2019-05-23T13:24:23.405Z,21.30
2019-05-23T13:26:53.098Z,21.30
2019-05-23T13:29:24.434Z,21.30
2019-05-23T13:31:54.416Z,21.20
2019-05-23T13:34:23.885Z,21.20
2019-05-23T13:36:54.035Z,21.10
2019-05-23T13:39:23.873Z,21.20
2019-05-23T13:41:53.732Z,21.40
2019-05-23T13:44:34.031Z,21.60
2019-05-23T13:46:55.104Z,21.80
2019-05-23T13:49:24.972Z,21.90
2019-05-23T13:51:54.880Z,21.90
2019-05-23T13:54:24.987Z,21.90
2019-05-23T13:56:54.995Z,22.00
2019-05-23T13:59:24.473Z,22.10
2019-05-23T14:01:54.004Z,22.30
2019-05-23T14:04:23.708Z,22.40
2019-05-23T14:06:54.205Z,22.70
2019-05-23T14:09:25.411Z,22.80
2019-05-23T14:12:19.943Z,22.70
2019-05-23T14:14:26.839Z,22.80
2019-05-23T14:16:58.256Z,22.80
2019-05-23T14:19:29.544Z,22.70
2019-05-23T14:22:00.056Z,22.70
2019-05-23T14:24:30.082Z,22.50
2019-05-23T14:27:01.337Z,22.40
2019-05-23T14:29:31.281Z,22.30
2019-05-23T14:32:11.944Z,22.30
2019-05-23T14:34:41.819Z,22.10
2019-05-23T14:37:12.983Z,22.10
2019-05-23T14:39:43.618Z,22.10
2019-05-23T14:42:31.192Z,22.20
2019-05-23T14:45:01.351Z,22.20
2019-05-23T14:47:35.299Z,22.20
2019-05-23T14:50:13.930Z,22.30
2019-05-23T14:52:48.428Z,22.40
2019-05-23T14:55:17.980Z,22.30
2019-05-23T14:57:47.440Z,22.10
2019-05-23T15:00:19.476Z,22.00
2019-05-23T15:02:49.045Z,22.20
2019-05-23T15:05:18.744Z,22.50
2019-05-23T15:07:48.604Z,22.70
2019-05-23T15:10:19.977Z,22.80
2019-05-23T15:12:49.852Z,22.80
2019-05-23T15:15:19.986Z,22.70
2019-05-23T15:17:49.861Z,22.70
2019-05-23T15:20:19.488Z,22.70
2019-05-23T15:22:49.172Z,22.80
2019-05-23T15:25:19.217Z,22.80
2019-05-23T15:27:49.079Z,22.70
2019-05-23T15:30:18.995Z,22.70
2019-05-23T15:32:48.541Z,22.70
2019-05-23T15:35:18.156Z,22.70
2019-05-23T15:37:47.615Z,22.60
2019-05-23T15:40:17.760Z,22.40
2019-05-23T15:42:47.382Z,22.30
2019-05-23T15:45:17.098Z,22.30
2019-05-23T15:47:46.993Z,22.40
2019-05-23T15:50:18.500Z,22.40
2019-05-23T15:52:49.803Z,22.40
2019-05-23T15:55:26.966Z,22.40
2019-05-23T15:58:13.631Z,22.40
2019-05-23T16:00:47.961Z,22.40
2019-05-23T16:03:22.517Z,22.50
2019-05-23T16:05:52.240Z,22.50
2019-05-23T16:08:21.787Z,22.60
2019-05-23T16:10:51.433Z,22.80
2019-05-23T16:13:21.060Z,22.80
2019-05-23T16:15:50.526Z,22.90
2019-05-23T16:18:20.662Z,23.00
2019-05-23T16:20:50.464Z,23.00
2019-05-23T16:23:20.000Z,23.00
2019-05-23T16:25:49.468Z,23.10
2019-05-23T16:28:19.485Z,23.20
2019-05-23T16:30:49.041Z,23.30
2019-05-23T16:33:18.505Z,23.40
2019-05-23T16:35:48.254Z,23.50
2019-05-23T16:38:17.708Z,23.40
2019-05-23T16:40:47.333Z,23.30
2019-05-23T16:43:17.407Z,23.30
2019-05-23T16:45:47.224Z,23.20
2019-05-23T16:48:16.865Z,23.00
2019-05-23T16:50:46.315Z,23.00
2019-05-23T16:53:16.235Z,23.00
2019-05-23T16:56:04.173Z,23.00
2019-05-23T16:58:38.180Z,22.90
2019-05-23T17:01:24.425Z,22.60
2019-05-23T17:04:03.256Z,22.40
2019-05-23T17:06:34.858Z,22.30
2019-05-23T17:09:07.836Z,22.20
2019-05-23T17:11:38.999Z,22.20
2019-05-23T17:14:10.465Z,22.00
2019-05-23T17:16:44.265Z,22.00
2019-05-23T17:19:15.811Z,21.90
2019-05-23T17:21:55.586Z,21.90
2019-05-23T17:24:27.499Z,21.70
2019-05-23T17:27:15.427Z,21.60
2019-05-23T17:29:59.619Z,21.60
2019-05-23T17:32:30.880Z,21.50
2019-05-23T17:35:00.564Z,21.40
2019-05-23T17:37:30.095Z,21.40
2019-05-23T17:39:59.837Z,21.30
2019-05-23T17:42:29.468Z,21.30
2019-05-23T17:44:59.332Z,21.30
2019-05-23T17:47:29.433Z,21.20
2019-05-23T17:49:58.951Z,21.10
2019-05-23T17:52:28.547Z,21.00
2019-05-23T17:54:58.219Z,20.90
2019-05-23T17:57:29.321Z,20.80
2019-05-23T17:59:59.041Z,20.70
2019-05-23T18:02:28.917Z,20.60
2019-05-23T18:04:58.510Z,20.60
2019-05-23T18:07:47.927Z,20.50
2019-05-23T18:10:18.433Z,20.40
2019-05-23T18:12:48.188Z,20.40
2019-05-23T18:15:17.641Z,20.30
2019-05-23T18:17:49.416Z,20.20
2019-05-23T18:20:19.342Z,20.10
2019-05-23T18:22:49.528Z,20.00
2019-05-23T18:25:19.303Z,19.90
2019-05-23T18:27:49.113Z,19.80
2019-05-23T18:30:20.484Z,19.80
2019-05-23T18:32:49.940Z,19.60
2019-05-23T18:35:19.918Z,19.60
2019-05-23T18:37:49.583Z,19.50
2019-05-23T18:40:19.291Z,19.40
2019-05-23T18:42:48.749Z,19.40
2019-05-23T18:45:19.021Z,19.20
2019-05-23T18:47:49.129Z,19.10
2019-05-23T18:50:19.251Z,19.00
2019-05-23T18:52:51.821Z,18.90
2019-05-23T18:55:21.052Z,18.90
2019-05-23T18:57:51.017Z,18.80
2019-05-23T19:00:23.600Z,18.70
2019-05-23T19:02:53.051Z,18.60
2019-05-23T19:05:23.023Z,18.40
2019-05-23T19:07:52.576Z,18.40
2019-05-23T19:10:22.640Z,18.30
2019-05-23T19:12:52.209Z,18.20
2019-05-23T19:15:21.905Z,18.10
2019-05-23T19:17:51.621Z,17.90
2019-05-23T19:20:21.352Z,17.90
2019-05-23T19:22:50.956Z,17.80
2019-05-23T19:25:20.993Z,17.70
2019-05-23T19:27:50.783Z,17.60
2019-05-23T19:30:20.921Z,17.50
2019-05-23T19:32:50.375Z,17.40
2019-05-23T19:35:20.405Z,17.30
2019-05-23T19:37:49.855Z,17.20
2019-05-23T19:40:19.800Z,17.20
2019-05-23T19:42:49.707Z,17.10
2019-05-23T19:45:19.392Z,17.00
2019-05-23T19:47:49.160Z,16.90
2019-05-23T19:50:19.052Z,16.80
2019-05-23T19:52:49.115Z,16.70
2019-05-23T19:55:19.080Z,16.70
2019-05-23T19:57:49.258Z,16.70
2019-05-23T20:00:20.839Z,16.60
2019-05-23T20:02:52.216Z,16.70
2019-05-23T20:05:26.513Z,16.60
2019-05-23T20:07:56.356Z,16.60
2019-05-23T20:10:26.445Z,16.50
2019-05-23T20:12:56.033Z,16.50
2019-05-23T20:15:25.967Z,16.50
2019-05-23T20:17:55.528Z,16.50
2019-05-23T20:20:25.467Z,16.40
2019-05-23T20:22:55.397Z,16.30
2019-05-23T20:25:25.683Z,16.30
2019-05-23T20:27:56.558Z,16.20
2019-05-23T20:30:44.984Z,16.20
2019-05-23T20:33:15.035Z,16.10
2019-05-23T20:35:44.771Z,16.00
2019-05-23T20:38:14.363Z,15.90
2019-05-23T20:40:43.949Z,16.00
2019-05-23T20:43:13.543Z,16.00
2019-05-23T20:45:43.204Z,16.10
2019-05-23T20:48:12.880Z,15.90
2019-05-23T20:50:42.571Z,16.00
2019-05-23T20:53:12.376Z,16.00
2019-05-23T20:55:42.874Z,16.00
2019-05-23T20:58:12.545Z,16.00
2019-05-23T21:00:44.154Z,16.00
2019-05-23T21:03:13.787Z,16.00
2019-05-23T21:05:43.248Z,15.90
2019-05-23T21:08:12.773Z,15.90
2019-05-23T21:10:45.308Z,15.80
2019-05-23T21:13:15.097Z,15.80
2019-05-23T21:15:44.859Z,15.80
2019-05-23T21:18:14.549Z,15.80
2019-05-23T21:20:44.356Z,15.70
2019-05-23T21:23:14.055Z,15.60
2019-05-23T21:25:51.183Z,15.50
2019-05-23T21:28:20.699Z,15.30
2019-05-23T21:30:50.441Z,15.20
2019-05-23T21:33:20.019Z,15.10
2019-05-23T21:35:49.488Z,15.10
2019-05-23T21:38:19.003Z,14.90
2019-05-23T21:40:48.474Z,14.90
2019-05-23T21:43:17.984Z,14.80
2019-05-23T21:45:47.461Z,14.70
2019-05-23T21:48:17.314Z,14.70
2019-05-23T21:50:46.971Z,14.60
2019-05-23T21:53:16.437Z,14.60
2019-05-23T21:55:46.308Z,14.50
2019-05-23T21:58:16.312Z,14.40
2019-05-23T22:01:08.476Z,14.40
2019-05-23T22:03:53.500Z,14.40
2019-05-23T22:06:32.156Z,14.30
2019-05-23T22:09:02.069Z,14.20
2019-05-23T22:11:31.533Z,14.10
2019-05-23T22:14:01.000Z,14.10
2019-05-23T22:16:30.537Z,14.00
2019-05-23T22:19:00.175Z,14.00
2019-05-23T22:21:29.698Z,13.90
2019-05-23T22:23:59.166Z,13.90
2019-05-23T22:26:28.859Z,13.90
2019-05-23T22:28:58.343Z,13.90
2019-05-23T22:31:28.028Z,13.90
2019-05-23T22:34:11.160Z,13.80
2019-05-23T22:36:40.693Z,13.80
2019-05-23T22:39:10.231Z,13.80
2019-05-23T22:41:39.767Z,13.70
2019-05-23T22:44:09.511Z,13.70
2019-05-23T22:46:39.507Z,13.60
2019-05-23T22:49:09.002Z,13.60
2019-05-23T22:51:38.784Z,13.60
2019-05-23T22:54:08.249Z,13.60
2019-05-23T22:56:37.709Z,13.60
2019-05-23T22:59:07.510Z,13.60
2019-05-23T23:01:37.648Z,13.50
2019-05-23T23:04:07.858Z,13.50
2019-05-23T23:06:37.784Z,13.50
2019-05-23T23:09:07.785Z,13.40
2019-05-23T23:11:37.349Z,13.40
2019-05-23T23:14:07.215Z,13.40
2019-05-23T23:16:36.721Z,13.40
2019-05-23T23:19:06.883Z,13.40
2019-05-23T23:21:36.593Z,13.40
2019-05-23T23:24:06.261Z,13.40
2019-05-23T23:26:36.031Z,13.30
2019-05-23T23:29:05.788Z,13.30
2019-05-23T23:31:35.444Z,13.30
2019-05-23T23:34:05.223Z,13.20
2019-05-23T23:36:34.692Z,13.20
2019-05-23T23:39:06.670Z,13.20
2019-05-23T23:41:36.206Z,13.20
2019-05-23T23:44:08.559Z,13.20
2019-05-23T23:46:56.316Z,13.20
2019-05-23T23:49:43.771Z,13.10
2019-05-23T23:52:31.351Z,13.10
2019-05-23T23:55:19.016Z,13.00
2019-05-23T23:57:59.786Z,13.00
